Time,TemperatureF,DewpointF,PressureIn,WindDirection,WindDirectionDegrees,WindSpeedMPH,WindSpeedGustMPH,Humidity,HourlyPrecipIn,Conditions,Clouds,dailyrainin,SolarRadiationWatts/m^2,SoftwareType,DateUTC
2013-08-30 00:03:00,53.0,52.0,-100.00,NNE,29,4.0,7.0,97,0.00,,,0.53,0.000000,,2013-08-30 08:03:00,
2013-08-30 00:11:00,53.0,52.0,-100.00,NNE,29,4.0,7.0,97,0.00,,,0.53,0.000000,,2013-08-30 08:11:00,
2013-08-30 00:22:00,53.0,52.0,-100.00,NNE,29,4.0,7.0,97,0.00,,,0.53,0.000000,,2013-08-30 08:22:00,
2013-08-30 00:52:00,54.0,53.0,-100.00,NNE,15,3.0,9.0,97,0.00,,,0.49,0.000000,,2013-08-30 08:52:00,
2013-08-30 01:01:00,54.0,53.0,-100.00,NNE,15,3.0,9.0,97,0.00,,,0.49,0.000000,,2013-08-30 09:01:00,
2013-08-30 01:12:00,54.0,53.0,-100.00,NNE,15,3.0,9.0,97,0.00,,,0.49,0.000000,,2013-08-30 09:12:00,
2013-08-30 01:22:00,54.0,53.0,-100.00,NNE,15,3.0,9.0,97,0.00,,,0.49,0.000000,,2013-08-30 09:22:00,
2013-08-30 01:53:00,54.0,53.0,-100.00,NNE,27,3.0,6.0,96,0.00,,,-99.99,0.000000,,2013-08-30 09:53:00,
2013-08-30 02:03:00,54.0,53.0,-100.00,NNE,27,3.0,6.0,96,0.00,,,-99.99,0.000000,,2013-08-30 10:03:00,
2013-08-30 02:12:00,54.0,53.0,-100.00,NNE,27,3.0,6.0,96,0.00,,,-99.99,0.000000,,2013-08-30 10:12:00,
2013-08-30 02:23:00,54.0,53.0,-100.00,NNE,27,3.0,6.0,96,0.00,,,-99.99,0.000000,,2013-08-30 10:23:00,
2013-08-30 02:53:00,53.0,52.0,-100.00,North,353,0.0,6.0,97,0.00,,,0.34,0.000000,,2013-08-30 10:53:00,
2013-08-30 03:03:00,53.0,52.0,-100.00,North,353,0.0,6.0,97,0.00,,,0.34,0.000000,,2013-08-30 11:03:00,
2013-08-30 03:12:00,53.0,52.0,-100.00,North,353,0.0,6.0,97,0.00,,,0.34,0.000000,,2013-08-30 11:12:00,
2013-08-30 03:22:00,53.0,52.0,-100.00,North,353,0.0,6.0,97,0.00,,,0.34,0.000000,,2013-08-30 11:22:00,
2013-08-30 03:52:00,53.0,52.0,-100.00,ESE,110,0.0,3.0,98,0.00,,,0.31,0.000000,,2013-08-30 11:52:00,
2013-08-30 04:01:00,53.0,52.0,-100.00,ESE,110,0.0,3.0,98,0.00,,,0.31,0.000000,,2013-08-30 12:01:00,
2013-08-30 04:12:00,53.0,52.0,-100.00,ESE,110,0.0,3.0,98,0.00,,,0.31,0.000000,,2013-08-30 12:12:00,
2013-08-30 04:21:00,53.0,52.0,-100.00,ESE,110,0.0,3.0,98,0.00,,,0.31,0.000000,,2013-08-30 12:21:00,
2013-08-30 04:52:00,53.0,52.0,-100.00,West,277,0.0,2.0,98,0.00,,,0.27,0.000000,,2013-08-30 12:52:00,
2013-08-30 05:02:00,53.0,52.0,-100.00,West,277,0.0,2.0,98,0.00,,,0.27,0.000000,,2013-08-30 13:02:00,
2013-08-30 05:11:00,53.0,52.0,-100.00,West,277,0.0,2.0,98,0.00,,,0.27,0.000000,,2013-08-30 13:11:00,
2013-08-30 05:21:00,53.0,52.0,-100.00,West,277,0.0,2.0,98,0.00,,,0.27,0.000000,,2013-08-30 13:21:00,
2013-08-30 05:52:00,53.0,52.0,-100.00,South,180,0.0,0.0,98,0.00,,,0.21,0.000000,,2013-08-30 13:52:00,
2013-08-30 06:02:00,53.0,52.0,-100.00,South,180,0.0,0.0,98,0.00,,,0.21,0.000000,,2013-08-30 14:02:00,
2013-08-30 06:11:00,53.0,52.0,-100.00,South,180,0.0,0.0,98,0.00,,,0.21,0.000000,,2013-08-30 14:11:00,
2013-08-30 06:21:00,53.0,52.0,-100.00,South,180,0.0,0.0,98,0.00,,,0.21,0.000000,,2013-08-30 14:21:00,
2013-08-30 06:52:00,53.0,52.0,-100.00,SSE,162,0.0,2.0,98,0.01,,,0.16,0.000000,,2013-08-30 14:52:00,
2013-08-30 07:02:00,53.0,52.0,-100.00,SSE,162,0.0,2.0,98,0.01,,,0.16,0.000000,,2013-08-30 15:02:00,
2013-08-30 07:11:00,53.0,52.0,-100.00,SSE,162,0.0,2.0,98,0.01,,,0.16,0.000000,,2013-08-30 15:11:00,
2013-08-30 07:22:00,53.0,52.0,-100.00,SSE,162,0.0,2.0,98,0.01,,,0.16,0.000000,,2013-08-30 15:22:00,
2013-08-30 07:54:00,52.0,51.0,-100.00,SSW,205,2.0,4.0,98,0.00,,,0.11,2.000000,,2013-08-30 15:54:00,
2013-08-30 08:05:00,52.0,51.0,-100.00,SSW,205,2.0,4.0,98,0.00,,,0.11,2.000000,,2013-08-30 16:05:00,
2013-08-30 08:13:00,52.0,51.0,-100.00,SSW,205,2.0,4.0,98,0.00,,,0.11,2.000000,,2013-08-30 16:13:00,
2013-08-30 08:24:00,52.0,51.0,-100.00,SSW,205,2.0,4.0,98,0.00,,,0.11,2.000000,,2013-08-30 16:24:00,
2013-08-30 08:53:00,52.0,51.0,-100.00,SSW,207,2.0,5.0,98,0.00,,,0.10,17.000000,,2013-08-30 16:53:00,
2013-08-30 09:03:00,52.0,51.0,-100.00,SSW,207,2.0,5.0,98,0.00,,,0.10,17.000000,,2013-08-30 17:03:00,
2013-08-30 09:13:00,52.0,51.0,-100.00,SSW,207,2.0,5.0,98,0.00,,,0.10,17.000000,,2013-08-30 17:13:00,
2013-08-30 09:23:00,52.0,51.0,-100.00,SSW,207,2.0,5.0,98,0.00,,,0.10,17.000000,,2013-08-30 17:23:00,
2013-08-30 09:53:00,53.0,52.0,-100.00,SW,215,3.0,5.0,98,0.00,,,0.10,44.000000,,2013-08-30 17:53:00,
2013-08-30 10:02:00,53.0,52.0,-100.00,SW,215,3.0,5.0,98,0.00,,,0.10,44.000000,,2013-08-30 18:02:00,
2013-08-30 10:12:00,53.0,52.0,-100.00,SW,215,3.0,5.0,98,0.00,,,0.10,44.000000,,2013-08-30 18:12:00,
2013-08-30 10:21:00,53.0,52.0,-100.00,SW,215,3.0,5.0,98,0.00,,,0.10,44.000000,,2013-08-30 18:21:00,
2013-08-30 10:52:00,54.0,53.0,-100.00,SSW,202,2.0,6.0,98,0.00,,,0.10,72.000000,,2013-08-30 18:52:00,
2013-08-30 11:01:00,54.0,53.0,-100.00,SSW,202,2.0,6.0,98,0.00,,,0.10,72.000000,,2013-08-30 19:01:00,
2013-08-30 11:12:00,54.0,53.0,-100.00,SSW,202,2.0,6.0,98,0.00,,,0.10,72.000000,,2013-08-30 19:12:00,
2013-08-30 11:21:00,54.0,53.0,-100.00,SSW,202,2.0,6.0,98,0.00,,,0.10,72.000000,,2013-08-30 19:21:00,
2013-08-30 11:53:00,55.0,54.0,-100.00,SSW,206,2.0,5.0,96,0.00,,,0.10,94.000000,,2013-08-30 19:53:00,
2013-08-30 12:03:00,55.0,54.0,-100.00,SSW,206,2.0,5.0,96,0.00,,,0.10,94.000000,,2013-08-30 20:03:00,
2013-08-30 12:11:00,55.0,54.0,-100.00,SSW,206,2.0,5.0,96,0.00,,,0.10,94.000000,,2013-08-30 20:11:00,
2013-08-30 12:22:00,55.0,54.0,-100.00,SSW,206,2.0,5.0,96,0.00,,,0.10,94.000000,,2013-08-30 20:22:00,
2013-08-30 12:52:00,57.0,53.0,-100.00,SW,221,3.0,5.0,88,0.00,,,0.10,131.000000,,2013-08-30 20:52:00,
2013-08-30 13:02:00,57.0,53.0,-100.00,SW,221,3.0,5.0,88,0.00,,,0.10,131.000000,,2013-08-30 21:02:00,
2013-08-30 13:11:00,57.0,53.0,-100.00,SW,221,3.0,5.0,88,0.00,,,0.10,131.000000,,2013-08-30 21:11:00,
2013-08-30 13:21:00,57.0,53.0,-100.00,SW,221,3.0,5.0,88,0.00,,,0.10,131.000000,,2013-08-30 21:21:00,
2013-08-30 13:55:00,58.0,54.0,-100.00,WSW,249,1.0,6.0,86,0.00,,,0.10,180.000000,,2013-08-30 21:55:00,
2013-08-30 14:04:00,58.0,54.0,-100.00,WSW,249,1.0,6.0,86,0.00,,,0.10,180.000000,,2013-08-30 22:04:00,
2013-08-30 14:13:00,58.0,54.0,-100.00,WSW,249,1.0,6.0,86,0.00,,,0.10,180.000000,,2013-08-30 22:13:00,
2013-08-30 14:24:00,58.0,54.0,-100.00,WSW,249,1.0,6.0,86,0.00,,,0.10,180.000000,,2013-08-30 22:24:00,
2013-08-30 14:54:00,61.0,54.0,-100.00,WSW,241,2.0,4.0,77,0.00,,,0.08,303.000000,,2013-08-30 22:54:00,
2013-08-30 15:03:00,61.0,54.0,-100.00,WSW,241,2.0,4.0,77,0.00,,,0.08,303.000000,,2013-08-30 23:03:00,
2013-08-30 15:12:00,61.0,54.0,-100.00,WSW,241,2.0,4.0,77,0.00,,,0.08,303.000000,,2013-08-30 23:12:00,
2013-08-30 15:22:00,61.0,54.0,-100.00,WSW,241,2.0,4.0,77,0.00,,,0.08,303.000000,,2013-08-30 23:22:00,
2013-08-30 15:53:00,62.0,54.0,-100.00,WSW,237,2.0,6.0,74,0.00,,,0.07,351.000000,,2013-08-30 23:53:00,
2013-08-30 16:02:00,62.0,54.0,-100.00,WSW,237,2.0,6.0,74,0.00,,,0.07,351.000000,,2013-08-31 00:02:00,
2013-08-30 16:11:00,62.0,54.0,-100.00,WSW,237,2.0,6.0,74,0.00,,,0.07,351.000000,,2013-08-31 00:11:00,
2013-08-30 16:21:00,62.0,54.0,-100.00,WSW,237,2.0,6.0,74,0.00,,,0.07,351.000000,,2013-08-31 00:21:00,
2013-08-30 16:52:00,62.0,52.0,-100.00,SSE,154,0.0,4.0,71,0.00,,,0.06,292.000000,,2013-08-31 00:52:00,
2013-08-30 17:01:00,62.0,52.0,-100.00,SSE,154,0.0,4.0,71,0.00,,,0.06,292.000000,,2013-08-31 01:01:00,
2013-08-30 17:11:00,62.0,52.0,-100.00,SSE,154,0.0,4.0,71,0.00,,,0.06,292.000000,,2013-08-31 01:11:00,
2013-08-30 17:21:00,62.0,52.0,-100.00,SSE,154,0.0,4.0,71,0.00,,,0.06,292.000000,,2013-08-31 01:21:00,
2013-08-30 17:52:00,62.0,53.0,-100.00,ENE,60,0.0,3.0,73,0.00,,,0.04,223.000000,,2013-08-31 01:52:00,
2013-08-30 18:02:00,62.0,53.0,-100.00,ENE,60,0.0,3.0,73,0.00,,,0.04,223.000000,,2013-08-31 02:02:00,
2013-08-30 18:12:00,62.0,53.0,-100.00,ENE,60,0.0,3.0,73,0.00,,,0.04,223.000000,,2013-08-31 02:12:00,
2013-08-30 18:22:00,62.0,53.0,-100.00,ENE,60,0.0,3.0,73,0.00,,,0.04,223.000000,,2013-08-31 02:22:00,
2013-08-30 18:52:00,61.0,53.0,-100.00,WSW,253,1.0,4.0,75,0.00,,,0.03,144.000000,,2013-08-31 02:52:00,
2013-08-30 19:02:00,61.0,53.0,-100.00,WSW,253,1.0,4.0,75,0.00,,,0.03,144.000000,,2013-08-31 03:02:00,
2013-08-30 19:12:00,61.0,53.0,-100.00,WSW,253,1.0,4.0,75,0.00,,,0.03,144.000000,,2013-08-31 03:12:00,
2013-08-30 19:22:00,61.0,53.0,-100.00,WSW,253,1.0,4.0,75,0.00,,,0.03,144.000000,,2013-08-31 03:22:00,
2013-08-30 19:54:00,60.0,53.0,-100.00,WNW,291,0.0,5.0,78,0.00,,,0.02,125.000000,,2013-08-31 03:54:00,
2013-08-30 20:05:00,60.0,53.0,-100.00,WNW,291,0.0,5.0,78,0.00,,,0.02,125.000000,,2013-08-31 04:05:00,
2013-08-30 20:14:00,60.0,53.0,-100.00,WNW,291,0.0,5.0,78,0.00,,,0.02,125.000000,,2013-08-31 04:14:00,
2013-08-30 20:24:00,60.0,53.0,-100.00,WNW,291,0.0,5.0,78,0.00,,,0.02,125.000000,,2013-08-31 04:24:00,
2013-08-30 20:54:00,57.0,53.0,-100.00,NE,36,0.0,2.0,86,0.00,,,0.01,45.000000,,2013-08-31 04:54:00,
2013-08-30 21:04:00,57.0,53.0,-100.00,NE,36,0.0,2.0,86,0.00,,,0.01,45.000000,,2013-08-31 05:04:00,
2013-08-30 21:13:00,57.0,53.0,-100.00,NE,36,0.0,2.0,86,0.00,,,0.01,45.000000,,2013-08-31 05:13:00,
2013-08-30 21:23:00,57.0,53.0,-100.00,NE,36,0.0,2.0,86,0.00,,,0.01,45.000000,,2013-08-31 05:23:00,
2013-08-30 21:52:00,55.0,53.0,-100.00,ENE,75,0.0,0.0,92,0.00,,,0.01,7.000000,,2013-08-31 05:52:00,
2013-08-30 22:02:00,55.0,53.0,-100.00,ENE,75,0.0,0.0,92,0.00,,,0.01,7.000000,,2013-08-31 06:02:00,
2013-08-30 22:12:00,55.0,53.0,-100.00,ENE,75,0.0,0.0,92,0.00,,,0.01,7.000000,,2013-08-31 06:12:00,
2013-08-30 22:22:00,55.0,53.0,-100.00,ENE,75,0.0,0.0,92,0.00,,,0.01,7.000000,,2013-08-31 06:22:00,
2013-08-30 22:52:00,54.0,53.0,-100.00,NE,37,0.0,2.0,95,0.00,,,0.01,0.000000,,2013-08-31 06:52:00,
2013-08-30 23:01:00,54.0,53.0,-100.00,NE,37,0.0,2.0,95,0.00,,,0.01,0.000000,,2013-08-31 07:01:00,
2013-08-30 23:12:00,54.0,53.0,-100.00,NE,37,0.0,2.0,95,0.00,,,0.01,0.000000,,2013-08-31 07:12:00,
2013-08-30 23:22:00,54.0,53.0,-100.00,NE,37,0.0,2.0,95,0.00,,,0.01,0.000000,,2013-08-31 07:22:00,
2013-08-30 23:52:00,52.0,51.0,-100.00,WSW,249,0.0,2.0,96,0.00,,,0.01,0.000000,,2013-08-31 07:52:00,